createdAt,value
2018-07-24T00:00:45.379Z,16.80
2018-07-24T00:03:13.053Z,16.70
2018-07-24T00:05:40.681Z,16.70
2018-07-24T00:08:08.345Z,16.60
2018-07-24T00:10:36.053Z,16.60
2018-07-24T00:13:03.761Z,16.50
2018-07-24T00:15:31.354Z,16.50
2018-07-24T00:17:58.909Z,16.60
2018-07-24T00:20:26.649Z,16.60
2018-07-24T00:22:54.279Z,16.50
2018-07-24T00:27:49.322Z,16.40
2018-07-24T00:30:17.583Z,16.40
2018-07-24T00:32:45.214Z,16.50
2018-07-24T00:35:12.790Z,16.50
2018-07-24T00:37:40.355Z,16.40
2018-07-24T00:40:08.042Z,16.50
2018-07-24T00:42:35.973Z,16.40
2018-07-24T00:45:03.668Z,16.20
2018-07-24T00:47:31.239Z,16.20
2018-07-24T00:49:58.821Z,16.30
2018-07-24T00:52:26.369Z,16.20
2018-07-24T00:54:54.005Z,16.30
2018-07-24T00:57:21.550Z,16.20
2018-07-24T00:59:49.806Z,16.30
2018-07-24T01:02:17.430Z,16.10
2018-07-24T01:04:45.593Z,16.10
2018-07-24T01:07:13.189Z,16.10
2018-07-24T01:09:40.950Z,16.20
2018-07-24T01:12:08.533Z,16.20
2018-07-24T01:14:36.070Z,16.10
2018-07-24T01:17:03.770Z,16.10
2018-07-24T01:19:31.323Z,16.00
2018-07-24T01:21:59.514Z,16.10
2018-07-24T01:24:27.069Z,16.10
2018-07-24T01:26:54.704Z,16.00
2018-07-24T01:29:22.310Z,16.00
2018-07-24T01:31:49.951Z,15.90
2018-07-24T01:34:17.621Z,15.70
2018-07-24T01:36:45.251Z,15.70
2018-07-24T01:39:12.845Z,15.60
2018-07-24T01:41:40.482Z,15.70
2018-07-24T01:44:08.105Z,15.80
2018-07-24T01:46:35.670Z,15.80
2018-07-24T01:49:04.218Z,15.80
2018-07-24T01:51:31.765Z,15.60
2018-07-24T01:53:59.375Z,15.40
2018-07-24T01:56:26.960Z,15.50
2018-07-24T01:58:54.506Z,15.60
2018-07-24T02:03:49.730Z,15.60
2018-07-24T02:06:17.297Z,15.60
2018-07-24T02:08:44.961Z,15.60
2018-07-24T02:11:12.647Z,15.60
2018-07-24T02:16:07.715Z,15.60
2018-07-24T02:18:35.422Z,15.60
2018-07-24T02:21:03.445Z,15.60
2018-07-24T02:23:31.118Z,15.60
2018-07-24T02:25:58.691Z,15.60
2018-07-24T02:28:27.012Z,15.50
2018-07-24T02:30:54.575Z,15.50
2018-07-24T02:33:22.137Z,15.50
2018-07-24T02:35:49.901Z,15.50
2018-07-24T02:38:17.515Z,15.50
2018-07-24T02:40:45.155Z,15.50
2018-07-24T02:43:12.823Z,15.40
2018-07-24T02:45:40.457Z,15.40
2018-07-24T02:48:08.026Z,15.30
2018-07-24T02:50:35.696Z,15.20
2018-07-24T02:53:03.394Z,15.10
2018-07-24T02:55:31.018Z,15.10
2018-07-24T02:57:58.719Z,15.10
2018-07-24T03:00:26.369Z,15.10
2018-07-24T03:02:54.029Z,15.10
2018-07-24T03:05:21.643Z,15.10
2018-07-24T03:07:49.209Z,15.00
2018-07-24T03:10:16.773Z,15.00
2018-07-24T03:12:44.381Z,15.00
2018-07-24T03:15:11.922Z,14.90
2018-07-24T03:17:39.664Z,14.80
2018-07-24T03:20:07.280Z,14.80
2018-07-24T03:22:35.254Z,14.80
2018-07-24T03:25:02.976Z,14.90
2018-07-24T03:27:30.605Z,14.90
2018-07-24T03:29:58.397Z,15.00
2018-07-24T03:32:26.008Z,15.00
2018-07-24T03:34:53.641Z,15.00
2018-07-24T03:37:21.165Z,15.00
2018-07-24T03:39:48.824Z,15.00
2018-07-24T03:42:17.297Z,15.10
2018-07-24T03:44:45.023Z,15.10
2018-07-24T03:47:12.736Z,15.00
2018-07-24T03:49:40.412Z,15.10
2018-07-24T03:52:08.113Z,15.00
2018-07-24T03:54:35.710Z,15.00
2018-07-24T03:57:03.447Z,15.00
2018-07-24T03:59:30.985Z,15.00
2018-07-24T04:01:58.609Z,14.90
2018-07-24T04:04:26.210Z,14.90
2018-07-24T04:09:21.366Z,15.00
2018-07-24T04:11:49.106Z,15.10
2018-07-24T04:14:16.681Z,15.20
2018-07-24T04:16:44.290Z,15.30
2018-07-24T04:19:11.885Z,15.40
2018-07-24T04:21:39.593Z,15.40
2018-07-24T04:24:07.189Z,15.40
2018-07-24T04:26:35.590Z,15.40
2018-07-24T04:29:03.185Z,15.50
2018-07-24T04:31:30.773Z,15.60
2018-07-24T04:33:58.967Z,15.70
2018-07-24T04:36:26.614Z,15.80
2018-07-24T04:38:54.756Z,15.90
2018-07-24T04:41:22.329Z,15.80
2018-07-24T04:43:49.902Z,15.90
2018-07-24T04:46:17.578Z,16.00
2018-07-24T04:48:45.270Z,16.00
2018-07-24T04:51:12.879Z,16.10
2018-07-24T04:53:40.528Z,16.20
2018-07-24T04:56:08.151Z,16.30
2018-07-24T04:58:35.729Z,16.50
2018-07-24T05:01:03.346Z,16.60
2018-07-24T05:03:30.952Z,16.70
2018-07-24T05:05:58.598Z,16.80
2018-07-24T05:08:26.273Z,17.00
2018-07-24T05:10:54.543Z,17.20
2018-07-24T05:13:22.326Z,17.30
2018-07-24T05:15:50.131Z,17.50
2018-07-24T05:18:17.694Z,17.60
2018-07-24T05:20:45.533Z,17.80
2018-07-24T05:23:13.209Z,17.90
2018-07-24T05:28:09.216Z,18.00
2018-07-24T05:30:36.949Z,18.10
2018-07-24T05:33:05.288Z,18.10
2018-07-24T05:35:33.042Z,18.30
2018-07-24T05:38:00.600Z,18.50
2018-07-24T05:40:28.535Z,18.60
2018-07-24T05:42:56.230Z,18.80
2018-07-24T05:45:23.845Z,19.00
2018-07-24T05:47:51.575Z,19.20
2018-07-24T05:50:20.089Z,19.40
2018-07-24T05:52:48.090Z,19.60
2018-07-24T05:55:15.660Z,19.80
2018-07-24T05:57:43.252Z,19.80
2018-07-24T06:00:11.033Z,19.90
2018-07-24T06:02:38.756Z,20.00
2018-07-24T06:05:06.521Z,20.00
2018-07-24T06:07:34.222Z,20.10
2018-07-24T06:10:01.799Z,20.40
2018-07-24T06:12:29.385Z,20.60
2018-07-24T06:14:56.957Z,20.80
2018-07-24T06:17:24.670Z,20.90
2018-07-24T06:19:52.542Z,21.10
2018-07-24T06:22:20.205Z,21.30
2018-07-24T06:24:48.407Z,21.20
2018-07-24T06:27:15.950Z,21.20
2018-07-24T06:29:43.550Z,21.60
2018-07-24T06:32:11.182Z,22.20
2018-07-24T06:34:38.801Z,22.80
2018-07-24T06:37:06.531Z,23.70
2018-07-24T06:39:34.827Z,24.90
2018-07-24T06:42:02.498Z,25.90
2018-07-24T06:44:30.337Z,26.90
2018-07-24T06:46:58.486Z,27.80
2018-07-24T06:49:26.210Z,27.90
2018-07-24T06:51:53.830Z,27.80
2018-07-24T06:54:21.400Z,27.90
2018-07-24T06:56:49.073Z,28.20
2018-07-24T06:59:16.749Z,29.30
2018-07-24T07:01:44.912Z,30.10
2018-07-24T07:04:13.206Z,30.60
2018-07-24T07:06:40.824Z,31.20
2018-07-24T07:09:08.688Z,32.20
2018-07-24T07:11:36.344Z,32.50
2018-07-24T07:14:05.063Z,32.30
2018-07-24T07:16:33.059Z,33.70
2018-07-24T07:19:00.638Z,33.80
2018-07-24T07:21:28.248Z,34.50
2018-07-24T07:23:55.901Z,34.60
2018-07-24T07:26:23.497Z,35.00
2018-07-24T07:28:51.069Z,35.40
2018-07-24T07:31:18.677Z,35.70
2018-07-24T07:33:46.395Z,36.10
2018-07-24T07:36:14.014Z,36.50
2018-07-24T07:38:42.346Z,37.60
2018-07-24T07:41:09.912Z,37.50
2018-07-24T07:48:33.177Z,33.40
2018-07-24T07:51:00.829Z,33.00
2018-07-24T07:53:28.413Z,33.60
2018-07-24T07:58:24.590Z,32.80
2018-07-24T08:00:52.158Z,31.90
2018-07-24T08:03:20.331Z,31.40
2018-07-24T08:05:47.906Z,30.90
2018-07-24T08:08:15.612Z,32.60
2018-07-24T08:10:43.982Z,31.60
2018-07-24T08:13:11.590Z,31.50
2018-07-24T08:15:39.348Z,30.80
2018-07-24T08:18:07.010Z,30.20
2018-07-24T08:20:34.553Z,30.10
2018-07-24T08:23:02.308Z,29.50
2018-07-24T08:25:29.901Z,30.10
2018-07-24T08:27:57.596Z,30.20
2018-07-24T08:30:25.241Z,30.20
2018-07-24T08:32:52.797Z,29.90
2018-07-24T08:35:20.406Z,30.20
2018-07-24T08:37:47.950Z,29.60
2018-07-24T08:40:15.640Z,29.60
2018-07-24T08:42:44.223Z,29.00
2018-07-24T08:45:11.910Z,29.00
2018-07-24T08:47:39.592Z,28.80
2018-07-24T08:50:07.229Z,28.80
2018-07-24T08:52:34.886Z,29.00
2018-07-24T08:55:02.725Z,28.90
2018-07-24T08:57:30.128Z,29.30
2018-07-24T08:59:57.714Z,29.20
2018-07-24T09:02:25.342Z,30.30
2018-07-24T09:04:52.881Z,30.50
2018-07-24T09:07:20.587Z,30.30
2018-07-24T09:09:48.153Z,30.80
2018-07-24T09:12:16.052Z,31.40
2018-07-24T09:14:43.682Z,31.90
2018-07-24T09:19:39.323Z,31.60
2018-07-24T09:24:34.782Z,31.40
2018-07-24T09:27:02.387Z,30.50
2018-07-24T09:29:30.513Z,30.30
2018-07-24T09:31:58.227Z,30.20
2018-07-24T09:34:25.940Z,30.20
2018-07-24T09:36:53.549Z,29.60
2018-07-24T09:39:21.281Z,30.60
2018-07-24T09:41:48.905Z,30.50
2018-07-24T09:44:16.490Z,31.10
2018-07-24T09:46:44.049Z,30.60
2018-07-24T09:49:11.675Z,30.80
2018-07-24T09:51:39.378Z,31.40
2018-07-24T09:54:06.987Z,30.60
2018-07-24T09:56:34.670Z,30.30
2018-07-24T09:59:02.385Z,30.10
2018-07-24T10:01:33.000Z,30.40
2018-07-24T10:04:01.668Z,30.30
2018-07-24T10:06:29.708Z,29.90
2018-07-24T10:08:57.382Z,30.20
2018-07-24T10:11:24.986Z,30.70
2018-07-24T10:13:52.550Z,30.70
2018-07-24T10:16:20.159Z,30.90
2018-07-24T10:18:47.757Z,31.40
2018-07-24T10:21:15.426Z,30.50
2018-07-24T10:23:43.668Z,31.00
2018-07-24T10:28:38.860Z,31.90
2018-07-24T10:31:06.764Z,31.60
2018-07-24T10:33:35.018Z,30.90
2018-07-24T10:36:02.674Z,31.30
2018-07-24T10:38:30.286Z,32.20
2018-07-24T10:40:57.992Z,32.30
2018-07-24T10:43:25.613Z,31.10
2018-07-24T10:50:51.070Z,32.40
2018-07-24T10:53:19.217Z,32.90
2018-07-24T10:55:46.941Z,32.30
2018-07-24T10:58:14.602Z,32.70
2018-07-24T11:00:42.284Z,32.50
2018-07-24T11:03:10.653Z,31.80
2018-07-24T11:05:38.410Z,30.80
2018-07-24T11:08:06.649Z,30.30
2018-07-24T11:10:34.191Z,29.50
2018-07-24T11:13:01.939Z,29.20
2018-07-24T11:15:30.545Z,29.40
2018-07-24T11:17:58.214Z,29.50
2018-07-24T11:20:25.837Z,30.30
2018-07-24T11:22:54.107Z,30.10
2018-07-24T11:25:21.903Z,30.00
2018-07-24T11:27:50.188Z,29.90
2018-07-24T11:30:17.816Z,31.20
2018-07-24T11:32:45.493Z,32.60
2018-07-24T11:35:13.173Z,32.50
2018-07-24T11:37:40.872Z,31.40
2018-07-24T11:40:09.906Z,32.10
2018-07-24T11:42:37.503Z,33.40
2018-07-24T11:45:05.979Z,33.70
2018-07-24T11:50:02.213Z,31.70
2018-07-24T11:52:30.066Z,31.80
2018-07-24T11:54:58.673Z,32.90
2018-07-24T11:57:26.325Z,33.70
2018-07-24T11:59:54.089Z,34.00
2018-07-24T12:04:49.565Z,32.40
2018-07-24T12:07:17.330Z,32.30
2018-07-24T12:12:13.368Z,33.40
2018-07-24T12:14:41.569Z,33.10
2018-07-24T12:17:09.910Z,33.00
2018-07-24T12:19:37.860Z,33.20
2018-07-24T12:22:05.727Z,32.90
2018-07-24T12:24:33.626Z,33.60
2018-07-24T12:27:01.223Z,33.40
2018-07-24T12:29:28.979Z,34.20
2018-07-24T12:31:56.589Z,35.40
2018-07-24T12:34:24.281Z,35.40
2018-07-24T12:36:52.035Z,34.90
2018-07-24T12:39:21.093Z,34.30
2018-07-24T12:41:48.735Z,34.60
2018-07-24T12:44:17.268Z,33.60
2018-07-24T12:46:45.767Z,33.50
2018-07-24T12:49:13.514Z,33.60
2018-07-24T12:51:41.142Z,35.20
2018-07-24T12:54:09.971Z,35.20
2018-07-24T12:56:37.742Z,34.30
2018-07-24T13:01:33.030Z,35.50
2018-07-24T13:04:00.791Z,35.10
2018-07-24T13:06:28.514Z,34.00
2018-07-24T13:08:56.142Z,33.80
2018-07-24T13:11:23.745Z,33.60
2018-07-24T13:13:51.330Z,34.40
2018-07-24T13:16:20.066Z,36.10
2018-07-24T13:18:48.425Z,38.30
2018-07-24T13:21:16.357Z,37.60
2018-07-24T13:26:12.001Z,37.90
2018-07-24T13:28:39.546Z,38.70
2018-07-24T13:31:07.735Z,39.90
2018-07-24T13:36:03.746Z,39.10
2018-07-24T13:38:31.796Z,37.50
2018-07-24T13:40:59.369Z,36.60
2018-07-24T13:43:27.903Z,35.70
2018-07-24T13:45:55.529Z,34.20
2018-07-24T13:48:23.259Z,32.70
2018-07-24T13:50:50.945Z,32.00
2018-07-24T13:53:19.226Z,33.40
2018-07-24T13:55:46.867Z,35.20
2018-07-24T13:58:14.644Z,36.40
2018-07-24T14:00:42.331Z,37.70
2018-07-24T14:03:10.601Z,38.00
2018-07-24T14:05:38.973Z,38.00
2018-07-24T14:08:06.853Z,38.80
2018-07-24T14:10:35.287Z,39.30
2018-07-24T14:15:31.080Z,37.60
2018-07-24T14:17:58.722Z,37.10
2018-07-24T14:20:26.761Z,36.30
2018-07-24T14:22:54.923Z,37.00
2018-07-24T14:25:22.841Z,38.50
2018-07-24T14:27:50.960Z,39.50
2018-07-24T14:30:19.242Z,39.60
2018-07-24T14:32:46.821Z,37.50
2018-07-24T14:35:14.435Z,38.00
2018-07-24T14:37:42.022Z,36.90
2018-07-24T14:40:09.694Z,35.10
2018-07-24T14:42:37.335Z,35.90
2018-07-24T14:47:33.170Z,36.60
2018-07-24T14:50:01.819Z,38.50
2018-07-24T14:52:29.522Z,37.20
2018-07-24T14:54:57.080Z,37.70
2018-07-24T14:57:25.114Z,38.80
2018-07-24T14:59:52.809Z,38.80
2018-07-24T15:02:20.394Z,39.00
2018-07-24T15:04:48.039Z,39.70
2018-07-24T15:07:15.643Z,39.90
2018-07-24T15:12:10.904Z,37.80
2018-07-24T15:14:38.522Z,37.70
2018-07-24T15:17:06.272Z,38.20
2018-07-24T15:19:34.449Z,37.30
2018-07-24T15:22:02.272Z,36.40
2018-07-24T15:24:29.926Z,35.50
2018-07-24T15:26:57.559Z,35.90
2018-07-24T15:29:25.670Z,34.90
2018-07-24T15:31:53.840Z,34.90
2018-07-24T15:34:21.680Z,35.60
2018-07-24T15:36:49.417Z,35.00
2018-07-24T15:39:17.959Z,35.00
2018-07-24T15:41:46.485Z,35.00
2018-07-24T15:44:14.938Z,35.60
2018-07-24T15:46:42.797Z,34.90
2018-07-24T15:49:11.153Z,34.80
2018-07-24T15:51:38.810Z,33.90
2018-07-24T15:54:06.441Z,33.00
2018-07-24T15:56:34.106Z,33.20
2018-07-24T16:12:06.419Z,33.20
2018-07-24T16:14:34.855Z,32.60
2018-07-24T16:17:03.117Z,29.70
2018-07-24T16:19:31.310Z,29.50
2018-07-24T16:21:59.879Z,29.40
2018-07-24T16:24:27.487Z,29.40
2018-07-24T16:26:56.178Z,29.40
2018-07-24T16:29:23.839Z,29.50
2018-07-24T16:31:51.497Z,29.50
2018-07-24T16:34:20.931Z,29.60
2018-07-24T16:36:48.585Z,29.50
2018-07-24T16:39:16.329Z,29.10
2018-07-24T16:41:44.276Z,29.10
2018-07-24T16:44:13.351Z,29.10
2018-07-24T16:46:41.619Z,29.00
2018-07-24T16:49:09.387Z,29.10
2018-07-24T16:51:37.217Z,29.10
2018-07-24T16:54:04.853Z,29.30
2018-07-24T16:56:32.526Z,29.30
2018-07-24T16:59:00.160Z,29.40
2018-07-24T17:01:28.804Z,29.40
2018-07-24T17:03:56.399Z,29.30
2018-07-24T17:06:24.502Z,29.10
2018-07-24T17:08:52.206Z,28.70
2018-07-24T17:13:47.357Z,28.60
2018-07-24T17:16:14.982Z,28.50
2018-07-24T17:21:10.254Z,28.60
2018-07-24T17:23:39.204Z,28.60
2018-07-24T17:26:07.573Z,28.70
2018-07-24T17:28:35.187Z,28.50
2018-07-24T17:33:31.018Z,28.30
2018-07-24T17:38:27.821Z,28.20
2018-07-24T17:40:55.577Z,28.20
2018-07-24T17:43:23.860Z,28.20
2018-07-24T17:45:51.710Z,28.20
2018-07-24T17:48:19.517Z,28.10
2018-07-24T17:50:47.299Z,28.00
2018-07-24T17:53:15.038Z,27.90
2018-07-24T17:55:43.103Z,27.90
2018-07-24T17:58:11.483Z,28.00
2018-07-24T18:00:39.249Z,28.00
2018-07-24T18:03:06.901Z,27.90
2018-07-24T18:08:02.256Z,27.70
2018-07-24T18:10:30.691Z,27.60
2018-07-24T18:12:58.678Z,27.50
2018-07-24T18:15:27.218Z,27.40
2018-07-24T18:17:55.107Z,27.40
2018-07-24T18:20:22.864Z,27.30
2018-07-24T18:22:50.629Z,27.30
2018-07-24T18:25:18.239Z,27.20
2018-07-24T18:27:45.955Z,27.20
2018-07-24T18:30:13.742Z,27.10
2018-07-24T18:32:41.366Z,27.00
2018-07-24T18:35:08.930Z,26.90
2018-07-24T18:37:36.556Z,26.80
2018-07-24T18:40:04.759Z,26.60
2018-07-24T18:42:32.889Z,26.40
2018-07-24T18:45:00.662Z,26.30
2018-07-24T18:47:28.310Z,26.10
2018-07-24T18:49:56.447Z,25.90
2018-07-24T18:52:24.123Z,25.80
2018-07-24T18:54:51.732Z,25.60
2018-07-24T18:57:20.532Z,25.40
2018-07-24T18:59:48.643Z,25.20
2018-07-24T19:02:16.443Z,24.90
2018-07-24T19:04:44.088Z,24.80
2018-07-24T19:07:11.899Z,24.70
2018-07-24T19:09:39.523Z,24.60
2018-07-24T19:12:07.764Z,24.40
2018-07-24T19:14:35.392Z,24.20
2018-07-24T19:17:03.035Z,24.00
2018-07-24T19:19:30.730Z,23.90
2018-07-24T19:21:58.580Z,23.90
2018-07-24T19:24:26.761Z,23.80
2018-07-24T19:26:55.598Z,23.80
2018-07-24T19:29:23.411Z,23.70
2018-07-24T19:31:51.262Z,23.60
2018-07-24T19:34:19.053Z,23.50
2018-07-24T19:36:47.798Z,23.40
2018-07-24T19:39:15.552Z,23.30
2018-07-24T19:41:43.257Z,23.20
2018-07-24T19:44:10.963Z,23.20
2018-07-24T19:46:38.732Z,23.10
2018-07-24T19:49:06.982Z,22.90
2018-07-24T19:51:34.768Z,22.90
2018-07-24T19:54:02.899Z,22.80
2018-07-24T19:56:31.354Z,22.70
2018-07-24T19:58:59.493Z,22.60
2018-07-24T20:01:27.535Z,22.60
2018-07-24T20:03:55.257Z,22.50
2018-07-24T20:06:23.075Z,22.40
2018-07-24T20:08:58.150Z,22.40
2018-07-24T20:11:25.871Z,22.30
2018-07-24T20:13:53.738Z,22.30
2018-07-24T20:16:21.821Z,22.10
2018-07-24T20:18:49.536Z,22.00
2018-07-24T20:21:18.050Z,21.90
2018-07-24T20:23:46.403Z,21.80
2018-07-24T20:26:14.006Z,21.70
2018-07-24T20:28:46.967Z,21.70
2018-07-24T20:31:14.743Z,21.60
2018-07-24T20:33:45.622Z,21.50
2018-07-24T20:36:14.493Z,21.40
2018-07-24T20:38:43.111Z,21.40
2018-07-24T20:41:10.754Z,21.30
2018-07-24T20:43:38.620Z,21.20
2018-07-24T20:46:06.977Z,21.20
2018-07-24T20:48:34.664Z,21.10
2018-07-24T20:51:02.491Z,21.10
2018-07-24T20:53:30.364Z,21.10
2018-07-24T20:55:57.987Z,20.90
2018-07-24T20:58:26.089Z,20.80
2018-07-24T21:00:54.470Z,20.70
2018-07-24T21:03:22.475Z,20.70
2018-07-24T21:05:50.160Z,20.70
2018-07-24T21:08:17.860Z,20.70
2018-07-24T21:10:45.763Z,20.70
2018-07-24T21:13:13.491Z,20.60
2018-07-24T21:15:41.731Z,20.50
2018-07-24T21:18:09.384Z,20.40
2018-07-24T21:20:38.143Z,20.30
2018-07-24T21:23:06.314Z,20.20
2018-07-24T21:25:34.013Z,20.00
2018-07-24T21:28:02.091Z,19.80
2018-07-24T21:30:30.441Z,19.80
2018-07-24T21:32:58.762Z,19.90
2018-07-24T21:35:26.614Z,19.80
2018-07-24T21:37:54.233Z,19.70
2018-07-24T21:40:21.960Z,19.70
2018-07-24T21:42:49.675Z,19.70
2018-07-24T21:45:17.425Z,19.80
2018-07-24T21:47:45.471Z,19.80
2018-07-24T21:50:14.405Z,19.70
2018-07-24T21:52:42.106Z,19.60
2018-07-24T21:55:09.706Z,19.60
2018-07-24T21:57:37.377Z,19.60
2018-07-24T22:00:07.549Z,19.60
2018-07-24T22:02:35.187Z,19.60
2018-07-24T22:05:03.208Z,19.60
2018-07-24T22:07:30.859Z,19.50
2018-07-24T22:09:58.442Z,19.50
2018-07-24T22:12:26.006Z,19.40
2018-07-24T22:14:54.881Z,19.40
2018-07-24T22:17:22.610Z,19.40
2018-07-24T22:19:50.394Z,19.40
2018-07-24T22:22:18.025Z,19.30
2018-07-24T22:24:46.330Z,19.10
2018-07-24T22:27:13.937Z,19.00
2018-07-24T22:29:41.464Z,19.00
2018-07-24T22:32:09.143Z,19.10
2018-07-24T22:34:36.881Z,19.00
2018-07-24T22:37:05.097Z,18.80
2018-07-24T22:39:32.781Z,18.80
2018-07-24T22:42:01.062Z,18.60
2018-07-24T22:44:28.952Z,18.70
2018-07-24T22:46:56.740Z,18.80
2018-07-24T22:49:24.379Z,18.80
2018-07-24T22:51:51.994Z,18.80
2018-07-24T22:54:19.707Z,18.80
2018-07-24T22:56:47.707Z,18.60
2018-07-24T22:59:15.364Z,18.40
2018-07-24T23:01:43.160Z,18.40
2018-07-24T23:04:10.964Z,18.40
2018-07-24T23:06:38.549Z,18.30
2018-07-24T23:09:08.057Z,18.30
2018-07-24T23:11:35.635Z,18.20
2018-07-24T23:14:03.388Z,18.20
2018-07-24T23:16:30.939Z,18.10
2018-07-24T23:18:58.545Z,18.00
2018-07-24T23:21:26.349Z,18.00
2018-07-24T23:23:58.261Z,18.10
2018-07-24T23:26:26.198Z,18.10
2018-07-24T23:28:53.801Z,18.00
2018-07-24T23:31:21.478Z,17.90
2018-07-24T23:33:49.049Z,18.00
2018-07-24T23:36:18.506Z,18.00
2018-07-24T23:38:46.060Z,18.10
2018-07-24T23:41:13.608Z,18.10
2018-07-24T23:43:41.246Z,18.00
2018-07-24T23:46:09.473Z,18.00
2018-07-24T23:48:37.283Z,17.90
2018-07-24T23:51:04.976Z,17.90
2018-07-24T23:53:32.565Z,18.00
2018-07-24T23:56:00.146Z,17.90
2018-07-24T23:58:27.855Z,17.90
